Beach, Texas
Current Conditions -  °F | °C
As of 10:53 AM on Monday 22 Dec 2014 (Local Time) from KCXO Reporting Station
Broken Clouds Broken Clouds  
Wind Chill: 65°   Ceiling: 2100
Heat Index: 65°   Visibility: 10mi
Dew Point: 57°   Wind: 10mph
Humidity: 75%   Direction: 230°SW
Pressure: 29.73"   Gusts: 24mph
Location:  30.3059°N, 95.4359°W
Report Text: KCXO 221653Z 23009G21KT 10SM BKN021 18/14 A2973 RMK AO2 SLP066 T01830139
Loading
Personal Weather Stations






























Interactive Weather Map New forecast layout! Learn more

10-Day Weather Forecast

Advertisements
Track Severe Weather on mobile